Time;durP1;ratioP1;P1;durP2;ratioP2;P2;SDS_P1;SDS_P2;PMS_P1;PMS_P2;Temp;Humidity;BMP_temperature;BMP_pressure;BME280_temperature;BME280_humidity;BME280_pressure;Samples;Min_cycle;Max_cycle;Signal;HPM_P1;HPM_P2
2021/11/15 00:04:37;;;;;;;15.30;13.77;;;;;;;9.59;73.98;100973.72;10291100;28;20050;-65
2021/11/15 00:09:39;;;;;;;15.90;14.18;;;;;;;9.62;73.96;100973.53;10294457;28;20425;-64
2021/11/15 00:14:40;;;;;;;15.57;13.73;;;;;;;9.65;74.09;100962.69;10294856;28;20546;-64
2021/11/15 00:19:42;;;;;;;16.08;14.48;;;;;;;9.60;74.21;100954.16;10292803;28;20431;-68
2021/11/15 00:24:44;;;;;;;16.13;14.52;;;;;;;9.62;74.32;100961.06;10294376;28;20970;-64
2021/11/15 00:29:46;;;;;;;15.88;14.27;;;;;;;9.49;74.67;100960.19;10293763;28;20129;-64
2021/11/15 00:34:48;;;;;;;15.73;14.20;;;;;;;9.46;75.11;100963.88;10295477;28;20515;-64
2021/11/15 00:39:50;;;;;;;15.13;13.52;;;;;;;9.58;74.96;100961.38;10293256;28;20046;-64
2021/11/15 00:44:51;;;;;;;16.65;14.20;;;;;;;9.54;74.95;100945.63;10295628;28;20435;-64
2021/11/15 00:49:53;;;;;;;16.92;15.27;;;;;;;9.53;74.67;100946.59;10294078;28;20070;-65
2021/11/15 00:54:55;;;;;;;17.92;15.57;;;;;;;9.47;75.11;100949.66;10296273;28;20055;-64
2021/11/15 00:59:56;;;;;;;15.95;14.25;;;;;;;9.47;75.41;100954.97;10291728;28;20054;-65
2021/11/15 01:04:58;;;;;;;16.52;14.82;;;;;;;9.46;75.62;100950.59;10292402;28;20113;-65
2021/11/15 01:09:59;;;;;;;17.92;14.38;;;;;;;9.41;75.97;100960.66;10291505;28;20077;-64
2021/11/15 01:15:01;;;;;;;16.13;14.50;;;;;;;9.42;75.81;100957.06;10292913;28;20486;-65
2021/11/15 01:20:05;;;;;;;18.08;14.32;;;;;;;9.44;75.81;100957.81;10285056;28;20122;-63
2021/11/15 01:25:09;;;;;;;17.23;14.47;;;;;;;9.56;75.22;100958.81;10297883;28;20138;-64
2021/11/15 01:30:14;;;;;;;17.88;15.65;;;;;;;9.44;75.62;100965.78;10300946;28;20077;-64
2021/11/15 01:35:16;;;;;;;15.88;14.27;;;;;;;9.54;75.78;100961.56;10313184;28;20058;-66
2021/11/15 01:40:23;;;;;;;17.20;13.85;;;;;;;9.65;75.31;100960.03;10294693;28;20100;-64
2021/11/15 01:45:27;;;;;;;17.27;15.27;;;;;;;9.68;75.01;100957.16;10300107;28;20057;-66
2021/11/15 01:50:31;;;;;;;18.60;15.57;;;;;;;9.69;74.81;100953.56;10298903;28;20268;-65
2021/11/15 01:55:33;;;;;;;17.08;14.38;;;;;;;9.68;74.67;100957.16;10299490;28;20046;-64
2021/11/15 02:00:41;;;;;;;16.27;14.55;;;;;;;9.71;74.87;100963.16;10294378;28;20108;-65
2021/11/15 02:05:43;;;;;;;16.73;13.88;;;;;;;9.70;74.83;100955.28;10297849;28;20575;-64
2021/11/15 02:10:46;;;;;;;13.63;12.23;;;;;;;9.55;74.93;100951.81;10313937;28;20062;-63
2021/11/15 02:15:49;;;;;;;15.30;13.63;;;;;;;9.50;75.73;100960.09;10300225;28;20105;-64
2021/11/15 02:20:56;;;;;;;14.18;12.35;;;;;;;9.58;75.49;100950.75;10299607;28;20054;-64
2021/11/15 02:25:59;;;;;;;16.75;13.88;;;;;;;9.51;75.60;100940.50;10297428;28;20043;-65
2021/11/15 02:31:03;;;;;;;15.55;13.68;;;;;;;9.53;76.04;100949.25;10298398;28;20522;-65
2021/11/15 02:36:07;;;;;;;16.13;13.80;;;;;;;9.61;75.44;100942.56;10297793;28;20125;-64
2021/11/15 02:41:08;;;;;;;14.68;13.15;;;;;;;9.67;75.08;100944.84;10299120;28;20046;-65
2021/11/15 02:46:10;;;;;;;14.65;13.07;;;;;;;9.67;74.82;100931.56;10297292;28;20074;-65
2021/11/15 02:51:13;;;;;;;14.98;12.82;;;;;;;9.68;74.93;100935.91;10297041;28;20050;-65
2021/11/15 02:56:16;;;;;;;16.85;15.00;;;;;;;9.57;75.29;100933.09;10294156;28;20204;-64
2021/11/15 03:01:19;;;;;;;15.38;12.80;;;;;;;9.62;75.38;100938.97;10297495;28;22460;-65
2021/11/15 03:06:21;;;;;;;16.95;13.65;;;;;;;9.59;75.43;100926.72;10287275;28;20050;-65
2021/11/15 03:11:22;;;;;;;15.45;13.85;;;;;;;9.60;75.54;100920.47;10292242;28;21716;-64
2021/11/15 03:16:24;;;;;;;16.13;13.75;;;;;;;9.54;75.51;100913.72;10302038;28;20142;-64
2021/11/15 03:21:26;;;;;;;14.35;12.85;;;;;;;9.58;75.47;100916.19;10296391;28;20535;-65
2021/11/15 03:26:27;;;;;;;16.10;14.10;;;;;;;9.59;75.66;100909.94;10296556;28;20053;-64
2021/11/15 03:31:32;;;;;;;17.23;15.13;;;;;;;9.58;75.75;100914.41;10295992;28;20447;-64
2021/11/15 03:36:34;;;;;;;17.25;14.80;;;;;;;9.56;75.61;100908.31;10309772;28;20796;-65
2021/11/15 03:41:39;;;;;;;16.73;14.93;;;;;;;9.54;75.90;100910.22;10291903;28;20706;-70
2021/11/15 03:46:41;;;;;;;16.90;14.90;;;;;;;9.51;75.92;100903.31;10293514;28;20050;-65
2021/11/15 03:51:44;;;;;;;18.73;14.90;;;;;;;9.50;76.16;100900.75;10295162;28;20500;-65
2021/11/15 03:56:45;;;;;;;17.58;13.90;;;;;;;9.42;76.31;100901.25;10294728;28;20050;-65
2021/11/15 04:01:47;;;;;;;16.88;14.25;;;;;;;9.45;76.15;100903.72;10305381;28;20096;-65
2021/11/15 04:06:51;;;;;;;17.65;14.98;;;;;;;9.47;76.23;100900.94;10321244;28;20046;-65
2021/11/15 04:11:54;;;;;;;17.58;15.20;;;;;;;9.51;76.14;100903.31;10324591;28;20498;-64
2021/11/15 04:16:58;;;;;;;17.95;15.30;;;;;;;9.54;75.99;100900.44;10322635;28;20479;-65
2021/11/15 04:21:59;;;;;;;18.97;15.10;;;;;;;9.46;76.51;100894.78;10323359;28;20049;-65
2021/11/15 04:27:01;;;;;;;18.27;15.27;;;;;;;9.49;76.45;100904.38;10324742;28;20050;-65
2021/11/15 04:32:05;;;;;;;18.08;14.90;;;;;;;9.50;76.39;100898.97;10315946;28;20096;-65
2021/11/15 04:37:06;;;;;;;17.70;15.20;;;;;;;9.42;76.52;100887.97;10317793;23;20161;-67
2021/11/15 04:42:08;;;;;;;17.42;14.68;;;;;;;9.44;76.31;100902.00;10288990;28;20524;-65
2021/11/15 04:47:09;;;;;;;16.63;14.48;;;;;;;9.43;76.40;100899.44;10288374;28;20054;-63
2021/11/15 04:52:10;;;;;;;16.35;14.30;;;;;;;9.48;76.30;100911.47;10301607;28;20046;-64
2021/11/15 04:57:12;;;;;;;18.88;14.85;;;;;;;9.51;76.05;100913.94;10303406;28;20126;-64
2021/11/15 05:02:14;;;;;;;15.25;13.10;;;;;;;9.42;75.95;100903.91;10297672;28;20046;-64
2021/11/15 05:07:16;;;;;;;14.27;12.70;;;;;;;9.38;76.38;100902.41;10300633;28;20508;-64
2021/11/15 05:12:17;;;;;;;16.23;12.63;;;;;;;9.35;76.13;100892.84;10302919;28;20409;-64
2021/11/15 05:17:19;;;;;;;16.13;12.93;;;;;;;9.23;76.77;100895.44;10314201;28;20129;-64
2021/11/15 05:22:21;;;;;;;15.88;13.20;;;;;;;9.26;76.87;100881.94;10304350;28;20291;-63
2021/11/15 05:27:22;;;;;;;14.50;12.07;;;;;;;9.29;76.71;100887.06;10304490;28;20137;-63
2021/11/15 05:32:24;;;;;;;15.05;12.15;;;;;;;9.31;76.47;100879.88;10302361;28;20043;-63
2021/11/15 05:37:27;;;;;;;15.95;12.88;;;;;;;9.43;75.87;100884.38;10301184;28;20047;-63
2021/11/15 05:42:28;;;;;;;15.98;11.52;;;;;;;9.42;75.49;100889.78;10297185;28;20145;-64
2021/11/15 05:47:30;;;;;;;14.75;12.57;;;;;;;9.43;75.12;100897.66;10299111;28;20103;-64
2021/11/15 05:52:33;;;;;;;14.73;11.48;;;;;;;9.36;75.72;100893.69;10297606;28;20045;-65
2021/11/15 05:57:35;;;;;;;13.68;11.02;;;;;;;9.35;75.48;100891.97;10289851;28;20141;-64
2021/11/15 06:02:37;;;;;;;14.00;11.00;;;;;;;9.36;75.08;100891.03;10301193;28;20064;-63
2021/11/15 06:07:40;;;;;;;14.57;11.80;;;;;;;9.36;75.23;100893.69;10322557;28;20078;-65
2021/11/15 06:12:43;;;;;;;14.27;11.38;;;;;;;9.32;75.41;100901.03;10315218;28;20045;-64
2021/11/15 06:17:44;;;;;;;12.00;10.23;;;;;;;9.32;75.41;100900.16;10324703;28;20141;-64
2021/11/15 06:22:46;;;;;;;12.60;10.52;;;;;;;9.33;75.51;100904.53;10317700;28;20078;-64
2021/11/15 06:27:49;;;;;;;12.32;10.52;;;;;;;9.40;75.12;100905.81;10315666;28;20054;-64
2021/11/15 06:32:50;;;;;;;12.55;10.80;;;;;;;9.33;75.32;100920.47;10317326;28;20058;-66
2021/11/15 06:37:51;;;;;;;12.05;10.20;;;;;;;9.36;75.13;100920.25;10317072;28;20497;-65
2021/11/15 06:42:53;;;;;;;11.98;10.73;;;;;;;9.25;75.54;100923.63;10319549;28;20419;-64
2021/11/15 06:47:54;;;;;;;12.13;8.55;;;;;;;9.40;74.98;100937.72;10315547;28;20193;-63
2021/11/15 06:52:56;;;;;;;12.07;10.13;;;;;;;9.26;75.13;100943.06;10319123;28;22851;-64
2021/11/15 06:57:57;;;;;;;14.00;10.70;;;;;;;9.24;75.51;100950.28;10319091;28;20070;-65
2021/11/15 07:02:59;;;;;;;12.65;10.40;;;;;;;9.23;74.86;100937.94;10316307;28;20050;-64
2021/11/15 07:08:01;;;;;;;11.68;10.23;;;;;;;9.26;75.51;100945.72;10317806;28;20125;-64
2021/11/15 07:13:02;;;;;;;13.45;9.80;;;;;;;9.20;74.75;100941.63;10320416;28;20044;-63
2021/11/15 07:18:05;;;;;;;13.40;10.20;;;;;;;9.67;76.39;100950.16;10316758;28;20380;-63
2021/11/15 07:23:07;;;;;;;9.93;8.55;;;;;;;10.20;72.98;100956.34;10316731;28;20077;-65
2021/11/15 07:28:09;;;;;;;10.70;9.18;;;;;;;10.31;70.90;100970.75;10319350;28;20607;-66
2021/11/15 07:33:12;;;;;;;12.57;9.63;;;;;;;9.96;72.00;100968.66;10315234;28;20061;-65
2021/11/15 07:38:13;;;;;;;13.00;10.23;;;;;;;9.56;72.92;100974.75;10312482;28;20042;-65
2021/11/15 07:43:16;;;;;;;11.38;9.15;;;;;;;9.55;73.51;100970.41;10316669;28;20508;-69
2021/11/15 07:48:17;;;;;;;11.45;9.45;;;;;;;9.47;73.54;100976.22;10312754;28;20061;-64
2021/11/15 07:53:19;;;;;;;11.55;9.57;;;;;;;9.49;73.07;100965.50;10306216;28;20496;-68
2021/11/15 07:58:21;;;;;;;14.18;11.10;;;;;;;9.51;73.53;100969.75;10309302;28;20411;-63
2021/11/15 08:03:23;;;;;;;10.07;8.55;;;;;;;9.34;73.63;100964.69;10306068;28;20062;-66
2021/11/15 08:08:24;;;;;;;9.88;8.23;;;;;;;9.34;73.93;100967.34;10314496;28;20060;-64
2021/11/15 08:13:25;;;;;;;10.60;8.88;;;;;;;9.41;73.34;100971.28;10309232;28;20054;-65
2021/11/15 08:18:27;;;;;;;10.02;8.73;;;;;;;9.34;73.43;100975.31;10313189;28;20126;-64
2021/11/15 08:23:29;;;;;;;9.60;8.48;;;;;;;9.47;72.83;100978.91;10313666;28;20065;-65
2021/11/15 08:28:31;;;;;;;9.25;8.15;;;;;;;9.43;72.63;100971.19;10313598;28;20053;-66
2021/11/15 08:39:30;;;;;;;8.85;7.40;;;;;;;9.46;72.46;100966.53;10318082;28;20088;-65
2021/11/15 08:44:33;;;;;;;8.38;7.47;;;;;;;9.44;72.59;100957.81;10323701;28;20505;-64
2021/11/15 08:49:35;;;;;;;8.60;7.55;;;;;;;9.41;72.55;100952.69;10321339;28;20657;-64
2021/11/15 08:54:37;;;;;;;9.98;8.07;;;;;;;9.46;72.00;100958.56;10322952;28;20046;-64
2021/11/15 08:59:39;;;;;;;7.60;6.88;;;;;;;9.47;71.57;100943.47;10317979;28;20487;-66
2021/11/15 09:04:41;;;;;;;8.48;6.97;;;;;;;9.48;71.70;100954.00;10326810;28;20137;-66
2021/11/15 09:09:42;;;;;;;7.97;6.60;;;;;;;9.45;72.01;100959.50;10323604;28;20552;-66
2021/11/15 09:14:44;;;;;;;8.02;6.32;;;;;;;9.47;71.38;100952.31;10328200;28;20142;-66
2021/11/15 09:19:46;;;;;;;6.55;5.63;;;;;;;9.49;71.12;100952.22;10328947;28;20140;-66
2021/11/15 09:24:50;;;;;;;7.97;6.25;;;;;;;9.45;71.45;100970.16;10332038;28;20108;-65
2021/11/15 09:29:52;;;;;;;8.32;6.50;;;;;;;9.46;71.29;100969.22;10329769;28;20052;-65
2021/11/15 09:34:54;;;;;;;9.27;6.53;;;;;;;9.51;71.30;100967.09;10324878;28;20125;-65
2021/11/15 09:39:55;;;;;;;7.90;6.10;;;;;;;9.50;71.00;100973.38;10318021;28;20050;-65
2021/11/15 09:44:57;;;;;;;7.22;5.75;;;;;;;9.50;71.04;100975.16;10322615;28;20049;-65
2021/11/15 09:50:02;;;;;;;8.07;5.90;;;;;;;9.59;70.76;100979.03;10324706;28;20050;-65
2021/11/15 09:55:05;;;;;;;6.65;5.90;;;;;;;9.60;70.26;100964.81;10326349;28;20114;-65
2021/11/15 10:00:15;;;;;;;7.17;5.93;;;;;;;9.71;70.14;100962.28;10322134;28;21971;-65
2021/11/15 10:05:18;;;;;;;8.68;5.50;;;;;;;9.66;70.29;100961.75;10326303;28;20141;-66
2021/11/15 10:10:44;;;;;;;6.88;5.93;;;;;;;9.70;70.15;100949.97;10325756;28;20062;-66
2021/11/15 10:15:48;;;;;;;6.90;5.47;;;;;;;9.78;70.09;100946.78;10317736;28;20081;-64
2021/11/15 10:20:52;;;;;;;6.10;5.50;;;;;;;9.77;69.88;100951.25;10324490;28;20461;-65
2021/11/15 10:25:58;;;;;;;7.00;6.30;;;;;;;9.70;69.57;100944.66;10321280;28;20062;-65
2021/11/15 10:31:00;;;;;;;5.75;5.15;;;;;;;9.81;69.61;100947.44;10319838;28;20847;-68
2021/11/15 10:36:02;;;;;;;6.13;5.20;;;;;;;9.86;69.40;100950.66;10322289;28;20044;-68
2021/11/15 10:41:21;;;;;;;6.25;5.20;;;;;;;9.85;69.60;100946.28;10319484;28;20542;-68
2021/11/15 10:46:31;;;;;;;6.65;4.88;;;;;;;9.85;69.49;100954.25;10315382;28;20643;-66
2021/11/15 10:51:53;;;;;;;6.43;4.82;;;;;;;9.86;69.44;100948.00;10324636;28;20054;-65
2021/11/15 10:57:15;;;;;;;6.53;4.72;;;;;;;9.91;69.16;100943.22;10308039;28;20049;-66
2021/11/15 11:02:27;;;;;;;5.28;4.65;;;;;;;9.91;68.89;100929.91;10280439;28;20042;-66
2021/11/15 11:07:29;;;;;;;5.63;4.65;;;;;;;9.80;69.56;100920.94;10315611;28;20073;-65
2021/11/15 11:12:41;;;;;;;5.22;4.70;;;;;;;9.73;69.81;100912.53;10317693;28;20058;-65
2021/11/15 11:18:02;;;;;;;7.72;6.95;;;;;;;9.81;69.40;100920.00;10318705;28;20899;-66
2021/11/15 11:28:31;;;;;;;6.75;5.53;;;;;;;9.72;69.39;100922.28;10305121;28;20042;-65
2021/11/15 11:33:33;;;;;;;6.95;6.15;;;;;;;9.77;69.72;100922.00;10317939;28;20096;-66
2021/11/15 11:38:36;;;;;;;13.80;13.00;;;;;;;9.79;69.43;100925.41;10321350;28;20054;-66
2021/11/15 11:43:41;;;;;;;6.15;5.22;;;;;;;9.79;69.43;100922.75;10315680;28;20127;-65
2021/11/15 11:48:53;;;;;;;4.93;4.43;;;;;;;9.76;69.37;100922.97;10312773;28;20515;-64
2021/11/15 11:54:23;;;;;;;8.70;7.93;;;;;;;9.68;69.14;100914.63;10319772;28;20054;-65
2021/11/15 11:59:25;;;;;;;7.25;5.60;;;;;;;9.74;69.23;100911.56;10274648;28;20046;-66
2021/11/15 12:04:27;;;;;;;7.75;7.05;;;;;;;9.69;69.39;100903.06;10315525;28;20077;-65
2021/11/15 12:09:46;;;;;;;5.93;5.05;;;;;;;9.71;68.89;100909.97;10323112;28;20054;-66
2021/11/15 12:14:49;;;;;;;6.57;5.93;;;;;;;9.62;69.51;100899.09;10317868;28;20057;-66
2021/11/15 12:20:05;;;;;;;7.05;6.30;;;;;;;9.64;69.26;100897.22;10315748;28;20309;-65
2021/11/15 12:25:13;;;;;;;5.97;5.38;;;;;;;9.64;68.97;100897.22;10313647;28;20493;-66
2021/11/15 12:30:18;;;;;;;5.93;5.35;;;;;;;9.69;68.74;100892.41;10320594;28;20056;-66
2021/11/15 12:35:19;;;;;;;;;;;;;;;9.66;68.84;100874.84;10327304;28;20060;-64
2021/11/15 12:40:36;;;;;;;6.47;5.20;;;;;;;9.67;69.19;100870.41;10312434;28;19956;-67
2021/11/15 12:45:47;;;;;;;6.07;3.97;;;;;;;9.69;69.00;100873.81;10316727;28;20047;-66
2021/11/15 12:50:51;;;;;;;6.65;4.90;;;;;;;9.68;69.47;100870.31;10304354;28;20080;-65
2021/11/15 12:55:53;;;;;;;;;;;;;;;9.70;69.19;100881.69;10308635;28;20109;-66
2021/11/15 13:00:56;;;;;;;4.95;4.45;;;;;;;9.69;69.58;100876.47;10314216;28;19930;-66
2021/11/15 13:05:58;;;;;;;6.97;5.65;;;;;;;9.62;69.66;100868.03;10316090;28;20058;-65
2021/11/15 13:11:00;;;;;;;6.15;4.95;;;;;;;9.70;69.09;100872.88;10317584;28;20123;-67
2021/11/15 13:16:20;;;;;;;7.00;5.07;;;;;;;9.75;69.10;100872.56;10318912;28;20029;-66
2021/11/15 13:21:41;;;;;;;5.18;4.60;;;;;;;9.66;69.10;100855.41;10319944;28;20033;-66
2021/11/15 13:26:47;;;;;;;5.43;4.60;;;;;;;9.68;69.08;100854.38;10324213;28;20559;-65
2021/11/15 13:31:50;;;;;;;5.05;4.22;;;;;;;9.66;69.04;100855.41;10316059;28;20069;-65
2021/11/15 13:36:52;;;;;;;5.57;4.95;;;;;;;9.68;68.77;100845.50;10323808;28;20590;-65
2021/11/15 13:41:53;;;;;;;5.65;5.15;;;;;;;9.74;69.32;100847.75;10322744;28;20054;-66
2021/11/15 13:46:55;;;;;;;5.65;5.10;;;;;;;9.67;69.08;100841.19;10318497;28;20141;-67
2021/11/15 13:51:56;;;;;;;8.07;5.30;;;;;;;9.53;69.09;100840.28;10323824;28;20588;-65
2021/11/15 13:57:00;;;;;;;6.95;5.28;;;;;;;9.61;69.33;100838.91;10320381;28;20138;-65
2021/11/15 14:02:02;;;;;;;5.53;4.95;;;;;;;9.68;68.91;100838.41;10320374;28;20052;-64
2021/11/15 14:07:04;;;;;;;5.57;4.82;;;;;;;9.68;69.06;100834.88;10317896;28;20099;-66
2021/11/15 14:18:03;;;;;;;6.30;5.30;;;;;;;9.70;68.76;100819.69;10319410;28;20398;-67
2021/11/15 14:23:05;;;;;;;5.18;4.65;;;;;;;9.76;68.91;100831.69;10326515;28;20720;-63
2021/11/15 14:28:09;;;;;;;5.32;4.82;;;;;;;9.72;68.83;100826.59;10321760;28;20042;-65
2021/11/15 14:33:10;;;;;;;5.20;4.22;;;;;;;9.70;69.01;100823.19;10318212;28;20101;-65
2021/11/15 14:38:12;;;;;;;5.97;5.03;;;;;;;9.66;69.08;100821.69;10320471;28;20051;-65
2021/11/15 14:43:14;;;;;;;5.65;4.95;;;;;;;9.67;69.42;100827.88;10319394;28;20934;-65
2021/11/15 14:48:16;;;;;;;6.68;5.05;;;;;;;9.71;69.44;100834.66;10319723;28;20054;-66
2021/11/15 14:53:17;;;;;;;7.60;5.88;;;;;;;9.72;69.57;100833.72;10320708;28;20060;-65
2021/11/15 14:58:18;;;;;;;5.78;4.95;;;;;;;9.77;69.38;100839.56;10313084;28;20050;-65
2021/11/15 15:03:20;;;;;;;5.97;4.85;;;;;;;9.76;69.40;100840.53;10318302;28;20126;-64
2021/11/15 15:08:22;;;;;;;6.90;5.13;;;;;;;9.76;69.42;100837.00;10319043;28;20516;-65
2021/11/15 15:13:26;;;;;;;6.10;4.57;;;;;;;9.78;69.40;100840.44;10320242;28;20080;-66
2021/11/15 15:18:32;;;;;;;4.50;3.93;;;;;;;9.76;69.48;100839.69;10318582;28;20424;-66
2021/11/15 15:23:34;;;;;;;5.82;5.20;;;;;;;9.71;69.70;100824.03;10319302;28;20649;-64
2021/11/15 15:28:35;;;;;;;6.68;5.25;;;;;;;9.71;69.75;100829.34;10318751;28;20064;-65
2021/11/15 15:33:37;;;;;;;6.18;5.57;;;;;;;9.73;69.71;100835.44;10322729;28;20050;-68
2021/11/15 15:38:38;;;;;;;7.10;5.97;;;;;;;9.72;69.84;100826.59;10340948;28;20061;-65
2021/11/15 15:43:39;;;;;;;6.60;5.78;;;;;;;9.72;69.67;100823.09;10329863;28;20074;-66
2021/11/15 15:48:41;;;;;;;6.15;5.65;;;;;;;9.62;69.81;100816.69;10320564;28;20154;-66
2021/11/15 15:53:43;;;;;;;6.82;6.13;;;;;;;9.69;69.72;100832.13;10311748;28;20577;-66
2021/11/15 15:58:44;;;;;;;6.82;6.13;;;;;;;9.68;70.12;100845.50;10316857;28;20133;-65
2021/11/15 16:03:56;;;;;;;8.40;6.18;;;;;;;9.67;69.83;100862.44;10319567;28;20069;-65
2021/11/15 16:09:07;;;;;;;7.43;6.65;;;;;;;9.67;70.02;100850.00;10316297;28;20534;-65
2021/11/15 16:19:28;;;;;;;8.52;7.63;;;;;;;9.61;70.41;100845.09;10310700;28;20431;-66
2021/11/15 16:24:30;;;;;;;8.45;7.68;;;;;;;9.62;70.31;100852.09;10314857;28;20164;-65
2021/11/15 16:29:33;;;;;;;9.00;7.80;;;;;;;9.61;70.32;100854.84;10314956;28;20331;-66
2021/11/15 16:34:34;;;;;;;11.32;10.13;;;;;;;9.54;70.58;100854.41;10312694;28;20641;-64
2021/11/15 16:39:35;;;;;;;11.77;9.23;;;;;;;9.52;70.95;100853.69;10318286;28;20419;-65
2021/11/15 16:44:37;;;;;;;13.30;9.85;;;;;;;9.54;70.71;100843.78;10323540;28;20049;-65
2021/11/15 16:49:38;;;;;;;11.40;9.55;;;;;;;9.58;70.68;100855.06;10342500;23;20049;-73
2021/11/15 16:54:40;;;;;;;12.13;9.63;;;;;;;9.50;70.69;100843.16;10323362;28;20050;-71
2021/11/15 16:59:42;;;;;;;15.27;10.55;;;;;;;9.54;70.43;100849.94;10334765;28;20104;-70
2021/11/15 17:04:45;;;;;;;14.32;10.27;;;;;;;9.51;70.68;100847.50;10319183;28;20159;-70
2021/11/15 17:09:48;;;;;;;15.93;11.20;;;;;;;9.55;70.72;100856.97;10303101;28;20553;-74
2021/11/15 17:14:49;;;;;;;14.27;11.15;;;;;;;9.53;70.80;100848.25;10314657;28;20156;-71
2021/11/15 17:19:52;;;;;;;12.55;9.93;;;;;;;9.54;71.02;100865.91;10346688;28;20153;-70
2021/11/15 17:24:54;;;;;;;12.50;10.85;;;;;;;9.54;71.03;100865.91;10329424;28;20428;-72
2021/11/15 17:29:55;;;;;;;12.75;10.82;;;;;;;9.46;70.47;100860.25;10329719;28;20527;-72
2021/11/15 17:34:57;;;;;;;13.32;11.90;;;;;;;9.40;71.59;100860.66;10330077;28;20073;-73
2021/11/15 17:39:58;;;;;;;14.77;12.25;;;;;;;9.44;71.31;100854.16;10345075;28;20611;-71
2021/11/15 17:45:01;;;;;;;13.57;11.75;;;;;;;9.45;71.29;100855.03;10341394;28;20416;-74
2021/11/15 17:50:08;;;;;;;15.65;11.55;;;;;;;9.46;71.23;100857.59;10330755;28;20228;-70
2021/11/15 17:55:38;;;;;;;13.65;11.98;;;;;;;9.47;71.33;100848.69;10350118;28;20057;-73
2021/11/15 18:00:40;;;;;;;15.65;10.63;;;;;;;9.47;71.25;100858.44;10351318;28;20072;-72
2021/11/15 18:05:42;;;;;;;13.05;11.68;;;;;;;9.36;71.65;100857.34;10333658;28;20050;-74
2021/11/15 18:10:44;;;;;;;13.48;10.45;;;;;;;9.36;71.79;100859.16;10327375;28;20052;-72
2021/11/15 18:15:46;;;;;;;14.23;10.68;;;;;;;9.37;71.72;100863.53;10334314;28;20073;-73
2021/11/15 18:20:48;;;;;;;13.25;10.70;;;;;;;9.34;71.64;100858.41;10326076;28;20507;-72
2021/11/15 18:25:50;;;;;;;13.75;11.93;;;;;;;9.39;71.75;100856.28;10320560;28;20069;-71
2021/11/15 18:30:55;;;;;;;15.02;12.18;;;;;;;9.41;71.49;100864.16;10342373;28;20057;-73
2021/11/15 18:35:57;;;;;;;11.88;10.48;;;;;;;9.12;72.04;100862.44;10336807;28;20082;-72
2021/11/15 18:40:58;;;;;;;13.70;11.73;;;;;;;9.09;72.71;100857.34;10347996;28;20048;-71
2021/11/15 18:46:01;;;;;;;15.93;12.60;;;;;;;9.16;72.41;100852.50;10340099;28;20057;-72
2021/11/15 18:51:03;;;;;;;19.17;13.00;;;;;;;9.20;72.19;100862.81;10367848;28;20512;-72
2021/11/15 18:56:06;;;;;;;25.77;18.75;;;;;;;9.28;72.25;100862.31;10377449;28;20056;-74
2021/11/15 19:01:29;;;;;;;15.98;12.07;;;;;;;9.24;72.09;100865.28;10329653;28;20088;-74
2021/11/15 19:06:30;;;;;;;15.70;13.45;;;;;;;9.24;72.27;100857.31;10349866;28;20050;-77
2021/11/15 19:16:38;;;;;;;16.63;13.98;;;;;;;9.18;72.51;100864.69;10330854;28;20070;-72
2021/11/15 19:21:42;;;;;;;20.30;14.38;;;;;;;9.14;72.32;100863.22;10334873;28;20607;-72
2021/11/15 19:27:06;;;;;;;18.05;13.60;;;;;;;9.10;73.10;100866.19;10336775;28;20077;-70
2021/11/15 19:32:08;;;;;;;17.27;13.90;;;;;;;8.99;73.05;100874.81;10341971;28;20077;-73
2021/11/15 19:37:10;;;;;;;18.52;14.25;;;;;;;9.11;73.11;100867.84;10341056;28;20065;-70
2021/11/15 19:42:12;;;;;;;17.08;13.75;;;;;;;9.10;72.60;100851.09;10335083;28;20046;-73
2021/11/15 19:47:13;;;;;;;19.15;14.23;;;;;;;9.20;72.47;100853.97;10335947;28;20046;-71
2021/11/15 19:52:15;;;;;;;19.33;15.18;;;;;;;9.23;72.21;100860.91;10346966;28;20137;-72
2021/11/15 19:57:38;;;;;;;18.77;15.05;;;;;;;9.19;72.18;100857.59;10328889;28;20049;-72
2021/11/15 20:02:40;;;;;;;17.93;15.27;;;;;;;9.14;72.31;100865.88;10321579;28;20128;-72
2021/11/15 20:07:43;;;;;;;17.52;14.05;;;;;;;9.09;72.65;100865.31;10323182;28;20442;-73
2021/11/15 20:12:45;;;;;;;18.17;14.27;;;;;;;9.12;72.79;100858.94;10327409;28;20064;-72
2021/11/15 20:17:47;;;;;;;20.30;16.30;;;;;;;8.92;73.40;100852.28;10321994;28;20149;-72
2021/11/15 20:22:48;;;;;;;17.52;15.15;;;;;;;8.98;73.23;100851.88;10324614;28;20117;-75
2021/11/15 20:27:51;;;;;;;23.25;17.63;;;;;;;8.96;73.30;100846.66;10325158;28;20053;-73
2021/11/15 20:32:55;;;;;;;19.35;14.75;;;;;;;8.99;73.38;100859.75;10337168;28;20105;-74
2021/11/15 20:37:58;;;;;;;21.67;15.97;;;;;;;9.02;72.95;100869.28;10345856;28;20049;-74
2021/11/15 20:43:01;;;;;;;21.70;15.90;;;;;;;9.05;72.72;100860.28;10346973;28;20300;-72
2021/11/15 20:48:03;;;;;;;20.05;16.15;;;;;;;9.00;73.31;100872.06;10330269;28;20057;-72
2021/11/15 20:53:05;;;;;;;20.85;16.17;;;;;;;9.07;73.02;100882.28;10326173;28;20057;-72
2021/11/15 20:58:06;;;;;;;20.63;16.00;;;;;;;9.09;72.79;100883.91;10325841;28;20133;-72
2021/11/15 21:03:14;;;;;;;19.85;15.57;;;;;;;9.06;73.04;100892.06;10316892;28;20184;-71
2021/11/15 21:08:17;;;;;;;20.50;16.42;;;;;;;8.89;73.14;100885.19;10306676;28;20133;-73
2021/11/15 21:13:19;;;;;;;22.20;16.25;;;;;;;8.85;73.80;100876.53;10312149;28;20049;-71
2021/11/15 21:18:21;;;;;;;20.48;16.23;;;;;;;8.94;73.18;100882.22;10317877;28;20139;-71
2021/11/15 21:23:24;;;;;;;21.02;16.30;;;;;;;9.00;73.05;100881.84;10307894;28;20070;-73
2021/11/15 21:28:25;;;;;;;23.70;17.92;;;;;;;9.02;73.05;100875.47;10302366;28;20057;-73
2021/11/15 21:33:27;;;;;;;20.65;15.20;;;;;;;9.07;73.03;100882.28;10294967;28;20138;-73
2021/11/15 21:38:29;;;;;;;22.65;15.60;;;;;;;9.03;72.88;100890.44;10300673;28;20096;-71
2021/11/15 21:43:31;;;;;;;21.33;15.35;;;;;;;9.09;72.75;100883.91;10315916;28;20130;-72
2021/11/15 21:48:32;;;;;;;20.42;15.93;;;;;;;9.10;72.60;100885.59;10309869;28;20628;-74
2021/11/15 21:53:34;;;;;;;19.05;15.95;;;;;;;9.08;72.78;100868.91;10322351;28;20110;-72
2021/11/15 21:58:35;;;;;;;20.42;16.35;;;;;;;9.02;72.80;100874.59;10314080;28;20410;-71
2021/11/15 22:03:37;;;;;;;22.67;16.58;;;;;;;8.99;72.88;100880.13;10310968;28;20141;-70
2021/11/15 22:08:39;;;;;;;21.38;16.17;;;;;;;9.05;73.09;100887.69;10306401;28;20577;-71
2021/11/15 22:13:42;;;;;;;22.75;16.33;;;;;;;9.05;72.60;100885.03;10304712;28;20090;-71
2021/11/15 22:18:45;;;;;;;21.17;15.90;;;;;;;9.03;72.93;100871.00;10300044;28;20122;-72
2021/11/15 22:23:55;;;;;;;20.40;16.38;;;;;;;9.07;72.51;100869.88;10305825;28;20053;-72
2021/11/15 22:28:58;;;;;;;20.75;16.30;;;;;;;9.07;72.67;100872.53;10302914;28;20574;-71
2021/11/15 22:34:00;;;;;;;21.40;17.20;;;;;;;9.10;72.85;100872.31;10327513;28;20026;-76
2021/11/15 22:39:05;;;;;;;22.95;17.30;;;;;;;9.08;72.80;100879.53;10314584;28;20121;-71
2021/11/15 22:44:08;;;;;;;21.60;17.00;;;;;;;9.06;73.08;100867.31;10319486;28;20122;-72
2021/11/15 22:49:11;;;;;;;23.98;17.15;;;;;;;8.98;72.83;100851.88;10337717;23;20050;-60
2021/11/15 22:54:13;;;;;;;22.73;17.10;;;;;;;8.95;72.91;100849.44;10315833;28;20050;-60
2021/11/15 22:59:15;;;;;;;20.98;16.08;;;;;;;9.00;72.98;100860.59;10318171;28;20125;-61
2021/11/15 23:04:16;;;;;;;22.20;17.67;;;;;;;8.98;73.14;100854.53;10332127;28;20654;-62
2021/11/15 23:09:18;;;;;;;23.10;17.08;;;;;;;9.01;73.41;100851.69;10318391;28;20125;-60
2021/11/15 23:14:19;;;;;;;23.75;18.48;;;;;;;9.05;73.02;100853.16;10283612;28;20133;-61
2021/11/15 23:19:21;;;;;;;22.98;17.20;;;;;;;9.01;73.07;100846.38;10277520;28;20450;-62
2021/11/15 23:24:23;;;;;;;24.77;18.17;;;;;;;9.08;73.13;100847.66;10317190;28;20982;-60
2021/11/15 23:29:24;;;;;;;28.38;18.30;;;;;;;9.05;73.37;100858.47;10327363;28;20064;-61
2021/11/15 23:34:26;;;;;;;26.25;18.83;;;;;;;9.06;73.35;100854.88;10335243;28;20121;-61
2021/11/15 23:39:27;;;;;;;26.33;18.23;;;;;;;8.97;73.29;100851.00;10319312;28;20505;-61